sensor_id;sensor_type;location;lat;lon;timestamp;P1;durP1;ratioP1;P2;durP2;ratioP2
5054;SDS011;13829;48.990;8.346;2023-04-03T00:00:29;2.37;;;2.00;;
5054;SDS011;13829;48.990;8.346;2023-04-03T00:03:07;1.80;;;1.53;;
5054;SDS011;13829;48.990;8.346;2023-04-03T00:05:53;3.00;;;2.00;;
5054;SDS011;13829;48.990;8.346;2023-04-03T00:08:27;3.43;;;1.93;;
5054;SDS011;13829;48.990;8.346;2023-04-03T00:11:23;2.77;;;1.73;;
5054;SDS011;13829;48.990;8.346;2023-04-03T00:14:04;4.30;;;2.10;;
5054;SDS011;13829;48.990;8.346;2023-04-03T00:17:07;3.43;;;1.70;;
5054;SDS011;13829;48.990;8.346;2023-04-03T00:19:40;3.10;;;1.70;;
5054;SDS011;13829;48.990;8.346;2023-04-03T00:22:27;2.60;;;2.07;;
5054;SDS011;13829;48.990;8.346;2023-04-03T00:25:07;2.33;;;1.90;;
5054;SDS011;13829;48.990;8.346;2023-04-03T00:28:01;4.33;;;1.83;;
5054;SDS011;13829;48.990;8.346;2023-04-03T00:33:35;1.70;;;1.60;;
5054;SDS011;13829;48.990;8.346;2023-04-03T00:36:09;2.90;;;1.57;;
5054;SDS011;13829;48.990;8.346;2023-04-03T00:38:39;2.17;;;1.73;;
5054;SDS011;13829;48.990;8.346;2023-04-03T00:41:09;1.93;;;1.60;;
5054;SDS011;13829;48.990;8.346;2023-04-03T00:43:38;2.70;;;1.63;;
5054;SDS011;13829;48.990;8.346;2023-04-03T00:46:05;2.63;;;1.73;;
5054;SDS011;13829;48.990;8.346;2023-04-03T00:48:34;2.47;;;1.83;;
5054;SDS011;13829;48.990;8.346;2023-04-03T00:51:07;4.40;;;2.10;;
5054;SDS011;13829;48.990;8.346;2023-04-03T00:53:41;1.53;;;1.43;;
5054;SDS011;13829;48.990;8.346;2023-04-03T00:56:17;2.50;;;1.77;;
5054;SDS011;13829;48.990;8.346;2023-04-03T00:58:51;1.70;;;1.60;;
5054;SDS011;13829;48.990;8.346;2023-04-03T01:01:25;2.43;;;1.83;;
5054;SDS011;13829;48.990;8.346;2023-04-03T01:03:55;2.47;;;1.70;;
5054;SDS011;13829;48.990;8.346;2023-04-03T01:06:26;2.73;;;1.40;;
5054;SDS011;13829;48.990;8.346;2023-04-03T01:08:58;2.80;;;1.90;;
5054;SDS011;13829;48.990;8.346;2023-04-03T01:11:28;4.10;;;2.17;;
5054;SDS011;13829;48.990;8.346;2023-04-03T01:13:55;2.20;;;1.70;;
5054;SDS011;13829;48.990;8.346;2023-04-03T01:16:24;2.60;;;1.73;;
5054;SDS011;13829;48.990;8.346;2023-04-03T01:18:54;1.87;;;1.60;;
5054;SDS011;13829;48.990;8.346;2023-04-03T01:24:33;2.17;;;1.50;;
5054;SDS011;13829;48.990;8.346;2023-04-03T01:27:05;1.60;;;1.50;;
5054;SDS011;13829;48.990;8.346;2023-04-03T01:29:36;2.00;;;1.63;;
5054;SDS011;13829;48.990;8.346;2023-04-03T01:32:05;2.73;;;1.70;;
5054;SDS011;13829;48.990;8.346;2023-04-03T01:34:35;1.73;;;1.30;;
5054;SDS011;13829;48.990;8.346;2023-04-03T01:37:02;2.57;;;1.70;;
5054;SDS011;13829;48.990;8.346;2023-04-03T01:39:29;2.33;;;1.70;;
5054;SDS011;13829;48.990;8.346;2023-04-03T01:41:56;2.83;;;1.90;;
5054;SDS011;13829;48.990;8.346;2023-04-03T01:44:26;2.60;;;1.70;;
5054;SDS011;13829;48.990;8.346;2023-04-03T01:46:53;4.27;;;1.83;;
5054;SDS011;13829;48.990;8.346;2023-04-03T01:49:23;1.70;;;1.57;;
5054;SDS011;13829;48.990;8.346;2023-04-03T01:51:53;2.87;;;1.77;;
5054;SDS011;13829;48.990;8.346;2023-04-03T01:54:20;2.50;;;1.67;;
5054;SDS011;13829;48.990;8.346;2023-04-03T01:56:49;2.67;;;1.80;;
5054;SDS011;13829;48.990;8.346;2023-04-03T01:59:17;2.50;;;1.90;;
5054;SDS011;13829;48.990;8.346;2023-04-03T02:01:46;1.93;;;1.80;;
5054;SDS011;13829;48.990;8.346;2023-04-03T02:04:13;1.93;;;1.73;;
5054;SDS011;13829;48.990;8.346;2023-04-03T02:06:41;3.13;;;1.87;;
5054;SDS011;13829;48.990;8.346;2023-04-03T02:09:08;2.47;;;1.90;;
5054;SDS011;13829;48.990;8.346;2023-04-03T02:11:35;2.47;;;1.80;;
5054;SDS011;13829;48.990;8.346;2023-04-03T02:14:02;2.50;;;2.07;;
5054;SDS011;13829;48.990;8.346;2023-04-03T02:16:29;2.83;;;2.20;;
5054;SDS011;13829;48.990;8.346;2023-04-03T02:18:56;2.00;;;1.80;;
5054;SDS011;13829;48.990;8.346;2023-04-03T02:21:23;2.17;;;1.97;;
5054;SDS011;13829;48.990;8.346;2023-04-03T02:23:54;2.23;;;2.03;;
5054;SDS011;13829;48.990;8.346;2023-04-03T02:26:21;2.97;;;2.10;;
5054;SDS011;13829;48.990;8.346;2023-04-03T02:28:51;2.93;;;2.23;;
5054;SDS011;13829;48.990;8.346;2023-04-03T02:31:25;2.05;;;1.85;;
5054;SDS011;13829;48.990;8.346;2023-04-03T02:33:52;3.07;;;2.10;;
5054;SDS011;13829;48.990;8.346;2023-04-03T02:36:19;2.60;;;2.40;;
5054;SDS011;13829;48.990;8.346;2023-04-03T02:38:46;3.43;;;2.37;;
5054;SDS011;13829;48.990;8.346;2023-04-03T02:41:15;2.53;;;2.07;;
5054;SDS011;13829;48.990;8.346;2023-04-03T02:43:42;2.87;;;2.37;;
5054;SDS011;13829;48.990;8.346;2023-04-03T02:46:11;2.73;;;2.17;;
5054;SDS011;13829;48.990;8.346;2023-04-03T02:48:40;3.83;;;1.90;;
5054;SDS011;13829;48.990;8.346;2023-04-03T02:51:06;2.53;;;2.23;;
5054;SDS011;13829;48.990;8.346;2023-04-03T02:53:36;3.87;;;2.23;;
5054;SDS011;13829;48.990;8.346;2023-04-03T02:56:03;3.63;;;2.30;;
5054;SDS011;13829;48.990;8.346;2023-04-03T02:58:32;4.47;;;2.30;;
5054;SDS011;13829;48.990;8.346;2023-04-03T03:01:05;3.60;;;2.30;;
5054;SDS011;13829;48.990;8.346;2023-04-03T03:03:32;3.07;;;2.30;;
5054;SDS011;13829;48.990;8.346;2023-04-03T03:06:04;2.43;;;1.87;;
5054;SDS011;13829;48.990;8.346;2023-04-03T03:08:38;2.43;;;1.90;;
5054;SDS011;13829;48.990;8.346;2023-04-03T03:11:09;2.77;;;2.20;;
5054;SDS011;13829;48.990;8.346;2023-04-03T03:13:39;2.63;;;2.20;;
5054;SDS011;13829;48.990;8.346;2023-04-03T03:16:06;3.97;;;2.20;;
5054;SDS011;13829;48.990;8.346;2023-04-03T03:18:36;4.00;;;2.40;;
5054;SDS011;13829;48.990;8.346;2023-04-03T03:21:03;2.70;;;2.40;;
5054;SDS011;13829;48.990;8.346;2023-04-03T03:23:31;2.67;;;1.80;;
5054;SDS011;13829;48.990;8.346;2023-04-03T03:26:05;2.60;;;2.00;;
5054;SDS011;13829;48.990;8.346;2023-04-03T03:28:34;3.33;;;2.57;;
5054;SDS011;13829;48.990;8.346;2023-04-03T03:31:08;2.87;;;2.27;;
5054;SDS011;13829;48.990;8.346;2023-04-03T03:33:37;3.50;;;2.30;;
5054;SDS011;13829;48.990;8.346;2023-04-03T03:36:05;3.20;;;2.17;;
5054;SDS011;13829;48.990;8.346;2023-04-03T03:38:35;3.37;;;2.30;;
5054;SDS011;13829;48.990;8.346;2023-04-03T03:41:02;2.83;;;2.40;;
5054;SDS011;13829;48.990;8.346;2023-04-03T03:43:31;2.93;;;2.00;;
5054;SDS011;13829;48.990;8.346;2023-04-03T03:45:59;3.13;;;2.40;;
5054;SDS011;13829;48.990;8.346;2023-04-03T03:48:30;3.63;;;2.17;;
5054;SDS011;13829;48.990;8.346;2023-04-03T03:50:57;3.60;;;2.60;;
5054;SDS011;13829;48.990;8.346;2023-04-03T03:53:30;2.33;;;2.13;;
5054;SDS011;13829;48.990;8.346;2023-04-03T03:55:59;3.10;;;2.30;;
5054;SDS011;13829;48.990;8.346;2023-04-03T03:58:26;3.23;;;2.00;;
5054;SDS011;13829;48.990;8.346;2023-04-03T04:00:54;2.50;;;2.30;;
5054;SDS011;13829;48.990;8.346;2023-04-03T04:03:26;3.43;;;2.60;;
5054;SDS011;13829;48.990;8.346;2023-04-03T04:05:55;2.40;;;2.20;;
5054;SDS011;13829;48.990;8.346;2023-04-03T04:08:24;3.33;;;2.30;;
5054;SDS011;13829;48.990;8.346;2023-04-03T04:10:52;3.73;;;2.43;;
5054;SDS011;13829;48.990;8.346;2023-04-03T04:13:20;3.63;;;2.40;;
5054;SDS011;13829;48.990;8.346;2023-04-03T04:15:49;4.43;;;2.47;;
5054;SDS011;13829;48.990;8.346;2023-04-03T04:18:18;3.70;;;2.20;;
5054;SDS011;13829;48.990;8.346;2023-04-03T04:21:05;2.63;;;1.90;;
5054;SDS011;13829;48.990;8.346;2023-04-03T04:23:32;5.10;;;2.63;;
5054;SDS011;13829;48.990;8.346;2023-04-03T04:25:59;3.17;;;2.27;;
5054;SDS011;13829;48.990;8.346;2023-04-03T04:28:28;2.67;;;2.40;;
5054;SDS011;13829;48.990;8.346;2023-04-03T04:30:55;3.43;;;2.37;;
5054;SDS011;13829;48.990;8.346;2023-04-03T04:33:27;6.40;;;2.53;;
5054;SDS011;13829;48.990;8.346;2023-04-03T04:35:59;3.93;;;3.20;;
5054;SDS011;13829;48.990;8.346;2023-04-03T04:38:26;5.07;;;3.07;;
5054;SDS011;13829;48.990;8.346;2023-04-03T04:40:53;3.10;;;2.30;;
5054;SDS011;13829;48.990;8.346;2023-04-03T04:43:21;3.77;;;2.47;;
5054;SDS011;13829;48.990;8.346;2023-04-03T04:45:48;5.20;;;2.63;;
5054;SDS011;13829;48.990;8.346;2023-04-03T04:48:26;3.43;;;2.47;;
5054;SDS011;13829;48.990;8.346;2023-04-03T04:50:53;3.20;;;2.70;;
5054;SDS011;13829;48.990;8.346;2023-04-03T04:53:25;5.40;;;3.83;;
5054;SDS011;13829;48.990;8.346;2023-04-03T04:55:54;4.03;;;2.23;;
5054;SDS011;13829;48.990;8.346;2023-04-03T04:58:27;3.23;;;2.13;;
5054;SDS011;13829;48.990;8.346;2023-04-03T05:00:59;3.20;;;2.20;;
5054;SDS011;13829;48.990;8.346;2023-04-03T05:03:28;2.67;;;2.10;;
5054;SDS011;13829;48.990;8.346;2023-04-03T05:06:00;2.87;;;2.20;;
5054;SDS011;13829;48.990;8.346;2023-04-03T05:08:31;3.37;;;2.10;;
5054;SDS011;13829;48.990;8.346;2023-04-03T05:11:01;4.27;;;2.57;;
5054;SDS011;13829;48.990;8.346;2023-04-03T05:13:28;2.80;;;2.50;;
5054;SDS011;13829;48.990;8.346;2023-04-03T05:15:56;2.23;;;2.03;;
5054;SDS011;13829;48.990;8.346;2023-04-03T05:18:28;4.23;;;2.30;;
5054;SDS011;13829;48.990;8.346;2023-04-03T05:20:55;3.53;;;2.40;;
5054;SDS011;13829;48.990;8.346;2023-04-03T05:23:22;3.97;;;2.70;;
5054;SDS011;13829;48.990;8.346;2023-04-03T05:25:53;3.50;;;2.53;;
5054;SDS011;13829;48.990;8.346;2023-04-03T05:28:26;2.77;;;2.57;;
5054;SDS011;13829;48.990;8.346;2023-04-03T05:30:53;3.37;;;2.30;;
5054;SDS011;13829;48.990;8.346;2023-04-03T05:33:21;2.97;;;2.33;;
5054;SDS011;13829;48.990;8.346;2023-04-03T05:35:51;3.27;;;2.43;;
5054;SDS011;13829;48.990;8.346;2023-04-03T05:38:23;3.57;;;2.33;;
5054;SDS011;13829;48.990;8.346;2023-04-03T05:40:50;2.53;;;2.20;;
5054;SDS011;13829;48.990;8.346;2023-04-03T05:43:18;3.17;;;2.00;;
5054;SDS011;13829;48.990;8.346;2023-04-03T05:45:46;4.03;;;2.73;;
5054;SDS011;13829;48.990;8.346;2023-04-03T05:48:22;3.90;;;2.67;;
5054;SDS011;13829;48.990;8.346;2023-04-03T05:50:50;2.50;;;2.10;;
5054;SDS011;13829;48.990;8.346;2023-04-03T05:53:17;3.23;;;2.60;;
5054;SDS011;13829;48.990;8.346;2023-04-03T05:55:50;3.20;;;2.37;;
5054;SDS011;13829;48.990;8.346;2023-04-03T05:58:21;3.77;;;2.93;;
5054;SDS011;13829;48.990;8.346;2023-04-03T06:00:48;2.60;;;2.40;;
5054;SDS011;13829;48.990;8.346;2023-04-03T06:03:18;2.67;;;2.47;;
5054;SDS011;13829;48.990;8.346;2023-04-03T06:05:45;7.60;;;2.60;;
5054;SDS011;13829;48.990;8.346;2023-04-03T06:08:14;4.57;;;2.83;;
5054;SDS011;13829;48.990;8.346;2023-04-03T06:10:41;2.90;;;2.20;;
5054;SDS011;13829;48.990;8.346;2023-04-03T06:13:08;3.53;;;2.40;;
5054;SDS011;13829;48.990;8.346;2023-04-03T06:15:41;3.70;;;2.40;;
5054;SDS011;13829;48.990;8.346;2023-04-03T06:18:11;3.77;;;2.33;;
5054;SDS011;13829;48.990;8.346;2023-04-03T06:20:45;4.00;;;2.70;;
5054;SDS011;13829;48.990;8.346;2023-04-03T06:23:12;4.00;;;2.33;;
5054;SDS011;13829;48.990;8.346;2023-04-03T06:25:45;3.03;;;2.50;;
5054;SDS011;13829;48.990;8.346;2023-04-03T06:28:15;2.57;;;2.20;;
5054;SDS011;13829;48.990;8.346;2023-04-03T06:30:46;2.53;;;2.33;;
5054;SDS011;13829;48.990;8.346;2023-04-03T06:33:14;2.83;;;2.03;;
5054;SDS011;13829;48.990;8.346;2023-04-03T06:35:52;5.03;;;2.20;;
5054;SDS011;13829;48.990;8.346;2023-04-03T06:38:32;3.23;;;2.40;;
5054;SDS011;13829;48.990;8.346;2023-04-03T06:41:01;2.77;;;2.13;;
5054;SDS011;13829;48.990;8.346;2023-04-03T06:43:29;4.30;;;2.57;;
5054;SDS011;13829;48.990;8.346;2023-04-03T06:45:58;3.47;;;2.60;;
5054;SDS011;13829;48.990;8.346;2023-04-03T06:48:26;3.43;;;2.37;;
5054;SDS011;13829;48.990;8.346;2023-04-03T06:50:52;2.77;;;2.20;;
5054;SDS011;13829;48.990;8.346;2023-04-03T06:53:19;3.93;;;1.97;;
5054;SDS011;13829;48.990;8.346;2023-04-03T06:55:50;2.87;;;2.17;;
5054;SDS011;13829;48.990;8.346;2023-04-03T06:58:17;3.60;;;2.40;;
5054;SDS011;13829;48.990;8.346;2023-04-03T07:00:46;2.40;;;2.20;;
5054;SDS011;13829;48.990;8.346;2023-04-03T07:03:26;4.97;;;2.63;;
5054;SDS011;13829;48.990;8.346;2023-04-03T07:05:53;2.87;;;2.63;;
5054;SDS011;13829;48.990;8.346;2023-04-03T07:08:21;3.83;;;2.37;;
5054;SDS011;13829;48.990;8.346;2023-04-03T07:10:51;3.07;;;2.00;;
5054;SDS011;13829;48.990;8.346;2023-04-03T07:13:23;2.47;;;2.10;;
5054;SDS011;13829;48.990;8.346;2023-04-03T07:15:51;3.77;;;2.57;;
5054;SDS011;13829;48.990;8.346;2023-04-03T07:18:19;4.77;;;2.23;;
5054;SDS011;13829;48.990;8.346;2023-04-03T07:20:48;2.73;;;2.10;;
5054;SDS011;13829;48.990;8.346;2023-04-03T07:23:15;3.07;;;1.90;;
5054;SDS011;13829;48.990;8.346;2023-04-03T07:25:42;3.80;;;2.13;;
5054;SDS011;13829;48.990;8.346;2023-04-03T07:28:16;5.17;;;2.50;;
5054;SDS011;13829;48.990;8.346;2023-04-03T07:30:45;2.97;;;2.37;;
5054;SDS011;13829;48.990;8.346;2023-04-03T07:33:15;2.90;;;2.30;;
5054;SDS011;13829;48.990;8.346;2023-04-03T07:35:44;4.53;;;2.40;;
5054;SDS011;13829;48.990;8.346;2023-04-03T07:38:13;4.00;;;2.57;;
5054;SDS011;13829;48.990;8.346;2023-04-03T07:40:41;3.33;;;2.60;;
5054;SDS011;13829;48.990;8.346;2023-04-03T07:43:13;3.23;;;2.43;;
5054;SDS011;13829;48.990;8.346;2023-04-03T07:45:40;2.40;;;2.20;;
5054;SDS011;13829;48.990;8.346;2023-04-03T07:48:13;5.93;;;3.07;;
5054;SDS011;13829;48.990;8.346;2023-04-03T07:50:42;4.37;;;3.17;;
5054;SDS011;13829;48.990;8.346;2023-04-03T07:53:10;4.10;;;2.67;;
5054;SDS011;13829;48.990;8.346;2023-04-03T07:55:40;4.87;;;2.63;;
5054;SDS011;13829;48.990;8.346;2023-04-03T07:58:11;5.30;;;2.87;;
5054;SDS011;13829;48.990;8.346;2023-04-03T08:00:41;6.93;;;3.30;;
5054;SDS011;13829;48.990;8.346;2023-04-03T08:03:08;4.53;;;2.80;;
5054;SDS011;13829;48.990;8.346;2023-04-03T08:05:37;4.03;;;2.53;;
5054;SDS011;13829;48.990;8.346;2023-04-03T08:08:11;6.07;;;3.10;;
5054;SDS011;13829;48.990;8.346;2023-04-03T08:10:41;5.23;;;2.77;;
5054;SDS011;13829;48.990;8.346;2023-04-03T08:13:09;5.00;;;3.23;;
5054;SDS011;13829;48.990;8.346;2023-04-03T08:15:39;5.80;;;3.03;;
5054;SDS011;13829;48.990;8.346;2023-04-03T08:18:07;4.13;;;2.47;;
5054;SDS011;13829;48.990;8.346;2023-04-03T08:20:34;3.83;;;2.77;;
5054;SDS011;13829;48.990;8.346;2023-04-03T08:23:03;6.10;;;2.50;;
5054;SDS011;13829;48.990;8.346;2023-04-03T08:25:30;4.83;;;2.60;;
5054;SDS011;13829;48.990;8.346;2023-04-03T08:28:00;3.43;;;2.53;;
5054;SDS011;13829;48.990;8.346;2023-04-03T08:30:28;3.43;;;2.40;;
5054;SDS011;13829;48.990;8.346;2023-04-03T08:32:55;4.50;;;3.23;;
5054;SDS011;13829;48.990;8.346;2023-04-03T08:35:22;6.63;;;2.97;;
5054;SDS011;13829;48.990;8.346;2023-04-03T08:37:49;6.73;;;2.90;;
5054;SDS011;13829;48.990;8.346;2023-04-03T08:40:16;4.93;;;2.90;;
5054;SDS011;13829;48.990;8.346;2023-04-03T08:42:49;3.07;;;2.03;;
5054;SDS011;13829;48.990;8.346;2023-04-03T08:45:33;2.87;;;2.07;;
5054;SDS011;13829;48.990;8.346;2023-04-03T08:48:13;4.57;;;2.53;;
5054;SDS011;13829;48.990;8.346;2023-04-03T08:50:47;4.47;;;2.53;;
5054;SDS011;13829;48.990;8.346;2023-04-03T08:53:21;3.57;;;2.80;;
5054;SDS011;13829;48.990;8.346;2023-04-03T08:55:53;4.60;;;2.47;;
5054;SDS011;13829;48.990;8.346;2023-04-03T08:58:25;5.87;;;2.60;;
5054;SDS011;13829;48.990;8.346;2023-04-03T09:00:58;5.43;;;2.40;;
5054;SDS011;13829;48.990;8.346;2023-04-03T09:03:32;6.60;;;2.57;;
5054;SDS011;13829;48.990;8.346;2023-04-03T09:06:05;3.83;;;2.20;;
5054;SDS011;13829;48.990;8.346;2023-04-03T09:08:42;2.27;;;1.67;;
5054;SDS011;13829;48.990;8.346;2023-04-03T09:11:34;3.97;;;2.40;;
5054;SDS011;13829;48.990;8.346;2023-04-03T09:14:17;5.00;;;2.23;;
5054;SDS011;13829;48.990;8.346;2023-04-03T09:16:59;4.33;;;2.20;;
5054;SDS011;13829;48.990;8.346;2023-04-03T09:19:33;3.97;;;2.10;;
5054;SDS011;13829;48.990;8.346;2023-04-03T09:22:13;3.63;;;1.93;;
5054;SDS011;13829;48.990;8.346;2023-04-03T09:24:45;3.27;;;1.90;;
5054;SDS011;13829;48.990;8.346;2023-04-03T09:27:22;3.77;;;1.90;;
5054;SDS011;13829;48.990;8.346;2023-04-03T09:29:52;3.40;;;2.23;;
5054;SDS011;13829;48.990;8.346;2023-04-03T09:32:25;3.77;;;2.00;;
5054;SDS011;13829;48.990;8.346;2023-04-03T09:34:56;3.73;;;2.07;;
5054;SDS011;13829;48.990;8.346;2023-04-03T09:37:33;2.53;;;1.80;;
5054;SDS011;13829;48.990;8.346;2023-04-03T09:40:27;4.10;;;1.90;;
5054;SDS011;13829;48.990;8.346;2023-04-03T09:43:00;7.53;;;2.00;;
5054;SDS011;13829;48.990;8.346;2023-04-03T09:45:46;3.17;;;1.90;;
5054;SDS011;13829;48.990;8.346;2023-04-03T09:48:17;4.20;;;1.87;;
5054;SDS011;13829;48.990;8.346;2023-04-03T09:50:57;4.43;;;2.20;;
5054;SDS011;13829;48.990;8.346;2023-04-03T09:53:32;3.20;;;1.93;;
5054;SDS011;13829;48.990;8.346;2023-04-03T09:56:18;2.53;;;1.80;;
5054;SDS011;13829;48.990;8.346;2023-04-03T09:58:51;7.50;;;2.27;;
5054;SDS011;13829;48.990;8.346;2023-04-03T10:01:41;3.10;;;2.03;;
5054;SDS011;13829;48.990;8.346;2023-04-03T10:04:22;3.30;;;1.90;;
5054;SDS011;13829;48.990;8.346;2023-04-03T10:06:52;3.57;;;1.57;;
5054;SDS011;13829;48.990;8.346;2023-04-03T10:09:24;4.07;;;1.80;;
5054;SDS011;13829;48.990;8.346;2023-04-03T10:12:01;3.17;;;1.50;;
5054;SDS011;13829;48.990;8.346;2023-04-03T10:14:33;4.27;;;1.60;;
5054;SDS011;13829;48.990;8.346;2023-04-03T10:17:05;3.60;;;1.40;;
5054;SDS011;13829;48.990;8.346;2023-04-03T10:19:45;3.53;;;1.50;;
5054;SDS011;13829;48.990;8.346;2023-04-03T10:22:19;1.83;;;1.30;;
5054;SDS011;13829;48.990;8.346;2023-04-03T10:25:01;3.83;;;1.40;;
5054;SDS011;13829;48.990;8.346;2023-04-03T10:27:43;3.40;;;1.27;;
5054;SDS011;13829;48.990;8.346;2023-04-03T10:30:30;4.10;;;1.73;;
5054;SDS011;13829;48.990;8.346;2023-04-03T10:33:19;3.97;;;1.80;;
5054;SDS011;13829;48.990;8.346;2023-04-03T10:36:10;2.10;;;1.73;;
5054;SDS011;13829;48.990;8.346;2023-04-03T10:38:48;4.20;;;1.73;;
5054;SDS011;13829;48.990;8.346;2023-04-03T10:41:28;3.97;;;2.00;;
5054;SDS011;13829;48.990;8.346;2023-04-03T10:44:17;1.40;;;1.30;;
5054;SDS011;13829;48.990;8.346;2023-04-03T10:47:05;3.50;;;1.60;;
5054;SDS011;13829;48.990;8.346;2023-04-03T10:49:48;2.13;;;1.30;;
5054;SDS011;13829;48.990;8.346;2023-04-03T10:52:28;2.90;;;1.30;;
5054;SDS011;13829;48.990;8.346;2023-04-03T10:55:13;2.60;;;1.50;;
5054;SDS011;13829;48.990;8.346;2023-04-03T10:57:57;3.07;;;1.50;;
5054;SDS011;13829;48.990;8.346;2023-04-03T11:00:29;1.87;;;1.43;;
5054;SDS011;13829;48.990;8.346;2023-04-03T11:03:05;2.07;;;1.23;;
5054;SDS011;13829;48.990;8.346;2023-04-03T11:05:44;2.57;;;1.47;;
5054;SDS011;13829;48.990;8.346;2023-04-03T11:08:21;3.67;;;1.40;;
5054;SDS011;13829;48.990;8.346;2023-04-03T11:10:56;2.77;;;1.30;;
5054;SDS011;13829;48.990;8.346;2023-04-03T11:13:30;11.43;;;3.27;;
5054;SDS011;13829;48.990;8.346;2023-04-03T11:16:05;3.77;;;2.10;;
5054;SDS011;13829;48.990;8.346;2023-04-03T11:18:44;2.53;;;1.30;;
5054;SDS011;13829;48.990;8.346;2023-04-03T11:21:20;2.67;;;1.43;;
5054;SDS011;13829;48.990;8.346;2023-04-03T11:23:56;1.90;;;1.27;;
5054;SDS011;13829;48.990;8.346;2023-04-03T11:26:27;2.10;;;1.33;;
5054;SDS011;13829;48.990;8.346;2023-04-03T11:29:03;4.30;;;1.50;;
5054;SDS011;13829;48.990;8.346;2023-04-03T11:31:42;2.13;;;1.47;;
5054;SDS011;13829;48.990;8.346;2023-04-03T11:34:39;2.40;;;1.30;;
5054;SDS011;13829;48.990;8.346;2023-04-03T11:37:15;2.00;;;1.30;;
5054;SDS011;13829;48.990;8.346;2023-04-03T11:39:56;2.50;;;1.50;;
5054;SDS011;13829;48.990;8.346;2023-04-03T11:42:33;2.47;;;1.10;;
5054;SDS011;13829;48.990;8.346;2023-04-03T11:45:22;1.93;;;1.40;;
5054;SDS011;13829;48.990;8.346;2023-04-03T11:47:59;4.70;;;1.43;;
5054;SDS011;13829;48.990;8.346;2023-04-03T11:50:44;2.27;;;1.57;;
5054;SDS011;13829;48.990;8.346;2023-04-03T11:53:30;2.20;;;1.60;;
5054;SDS011;13829;48.990;8.346;2023-04-03T11:56:01;2.43;;;1.50;;
5054;SDS011;13829;48.990;8.346;2023-04-03T12:01:48;2.93;;;1.77;;
5054;SDS011;13829;48.990;8.346;2023-04-03T12:04:18;5.20;;;1.57;;
5054;SDS011;13829;48.990;8.346;2023-04-03T12:12:57;2.73;;;1.77;;
5054;SDS011;13829;48.990;8.346;2023-04-03T12:18:36;2.67;;;1.70;;
5054;SDS011;13829;48.990;8.346;2023-04-03T12:21:23;1.67;;;1.47;;
5054;SDS011;13829;48.990;8.346;2023-04-03T12:24:32;2.57;;;1.60;;
5054;SDS011;13829;48.990;8.346;2023-04-03T12:27:03;2.90;;;2.03;;
5054;SDS011;13829;48.990;8.346;2023-04-03T12:29:47;4.77;;;1.80;;
5054;SDS011;13829;48.990;8.346;2023-04-03T12:32:50;5.00;;;2.83;;
5054;SDS011;13829;48.990;8.346;2023-04-03T13:15:41;3.67;;;2.10;;
5054;SDS011;13829;48.990;8.346;2023-04-03T13:18:24;3.20;;;2.10;;
5054;SDS011;13829;48.990;8.346;2023-04-03T13:20:56;5.53;;;2.83;;
5054;SDS011;13829;48.990;8.346;2023-04-03T13:23:30;3.57;;;1.70;;
5054;SDS011;13829;48.990;8.346;2023-04-03T13:26:02;2.80;;;2.03;;
5054;SDS011;13829;48.990;8.346;2023-04-03T13:28:31;4.03;;;1.87;;
5054;SDS011;13829;48.990;8.346;2023-04-03T13:38:02;1.73;;;1.50;;
5054;SDS011;13829;48.990;8.346;2023-04-03T13:40:33;4.10;;;1.80;;
5054;SDS011;13829;48.990;8.346;2023-04-03T13:43:16;3.70;;;1.77;;
5054;SDS011;13829;48.990;8.346;2023-04-03T13:45:53;2.10;;;1.43;;
5054;SDS011;13829;48.990;8.346;2023-04-03T13:48:26;3.17;;;2.10;;
5054;SDS011;13829;48.990;8.346;2023-04-03T13:51:02;4.33;;;1.70;;
5054;SDS011;13829;48.990;8.346;2023-04-03T13:53:33;2.57;;;1.40;;
5054;SDS011;13829;48.990;8.346;2023-04-03T13:56:09;3.20;;;1.83;;
5054;SDS011;13829;48.990;8.346;2023-04-03T13:58:54;2.57;;;1.77;;
5054;SDS011;13829;48.990;8.346;2023-04-03T14:01:32;1.60;;;1.37;;
5054;SDS011;13829;48.990;8.346;2023-04-03T14:04:11;3.20;;;1.40;;
5054;SDS011;13829;48.990;8.346;2023-04-03T14:06:45;2.73;;;1.73;;
5054;SDS011;13829;48.990;8.346;2023-04-03T14:09:13;2.00;;;1.80;;
5054;SDS011;13829;48.990;8.346;2023-04-03T14:11:41;3.47;;;1.70;;
5054;SDS011;13829;48.990;8.346;2023-04-03T14:14:11;3.07;;;1.87;;
5054;SDS011;13829;48.990;8.346;2023-04-03T14:16:43;3.47;;;1.53;;
5054;SDS011;13829;48.990;8.346;2023-04-03T14:19:19;2.60;;;1.33;;
5054;SDS011;13829;48.990;8.346;2023-04-03T14:21:51;2.83;;;1.57;;
5054;SDS011;13829;48.990;8.346;2023-04-03T14:24:20;3.90;;;1.60;;
5054;SDS011;13829;48.990;8.346;2023-04-03T14:26:48;3.43;;;1.50;;
5054;SDS011;13829;48.990;8.346;2023-04-03T14:29:17;4.83;;;1.93;;
5054;SDS011;13829;48.990;8.346;2023-04-03T14:31:46;3.50;;;1.87;;
5054;SDS011;13829;48.990;8.346;2023-04-03T14:34:14;2.97;;;1.73;;
5054;SDS011;13829;48.990;8.346;2023-04-03T14:36:43;3.60;;;1.90;;
5054;SDS011;13829;48.990;8.346;2023-04-03T14:39:15;3.67;;;1.87;;
5054;SDS011;13829;48.990;8.346;2023-04-03T14:41:45;3.13;;;1.73;;
5054;SDS011;13829;48.990;8.346;2023-04-03T14:44:12;2.27;;;1.80;;
5054;SDS011;13829;48.990;8.346;2023-04-03T14:46:41;4.90;;;1.97;;
5054;SDS011;13829;48.990;8.346;2023-04-03T14:49:12;1.83;;;1.57;;
5054;SDS011;13829;48.990;8.346;2023-04-03T14:51:43;2.63;;;1.73;;
5054;SDS011;13829;48.990;8.346;2023-04-03T14:54:16;2.07;;;1.57;;
5054;SDS011;13829;48.990;8.346;2023-04-03T14:56:50;4.73;;;1.90;;
5054;SDS011;13829;48.990;8.346;2023-04-03T14:59:17;2.17;;;1.70;;
5054;SDS011;13829;48.990;8.346;2023-04-03T15:01:46;2.60;;;1.50;;
5054;SDS011;13829;48.990;8.346;2023-04-03T15:04:14;2.50;;;1.80;;
5054;SDS011;13829;48.990;8.346;2023-04-03T15:06:44;2.53;;;1.70;;
5054;SDS011;13829;48.990;8.346;2023-04-03T15:09:18;3.60;;;1.67;;
5054;SDS011;13829;48.990;8.346;2023-04-03T15:11:47;4.37;;;1.93;;
5054;SDS011;13829;48.990;8.346;2023-04-03T15:14:15;2.53;;;1.73;;
5054;SDS011;13829;48.990;8.346;2023-04-03T15:16:42;2.53;;;2.00;;
5054;SDS011;13829;48.990;8.346;2023-04-03T15:19:10;2.00;;;1.50;;
5054;SDS011;13829;48.990;8.346;2023-04-03T15:21:38;2.97;;;2.00;;
5054;SDS011;13829;48.990;8.346;2023-04-03T15:24:05;3.17;;;2.20;;
5054;SDS011;13829;48.990;8.346;2023-04-03T15:26:34;4.10;;;1.97;;
5054;SDS011;13829;48.990;8.346;2023-04-03T15:29:01;2.80;;;1.87;;
5054;SDS011;13829;48.990;8.346;2023-04-03T15:31:29;2.80;;;1.87;;
5054;SDS011;13829;48.990;8.346;2023-04-03T15:33:56;2.77;;;1.90;;
5054;SDS011;13829;48.990;8.346;2023-04-03T15:36:23;2.70;;;2.07;;
5054;SDS011;13829;48.990;8.346;2023-04-03T15:38:52;4.87;;;2.17;;
5054;SDS011;13829;48.990;8.346;2023-04-03T15:41:19;3.13;;;2.13;;
5054;SDS011;13829;48.990;8.346;2023-04-03T15:43:47;2.47;;;2.27;;
5054;SDS011;13829;48.990;8.346;2023-04-03T15:46:14;3.53;;;2.00;;
5054;SDS011;13829;48.990;8.346;2023-04-03T15:48:41;2.50;;;2.20;;
5054;SDS011;13829;48.990;8.346;2023-04-03T15:51:09;3.60;;;2.37;;
5054;SDS011;13829;48.990;8.346;2023-04-03T15:53:36;7.50;;;2.57;;
5054;SDS011;13829;48.990;8.346;2023-04-03T15:56:03;5.13;;;1.83;;
5054;SDS011;13829;48.990;8.346;2023-04-03T15:58:33;3.27;;;2.03;;
5054;SDS011;13829;48.990;8.346;2023-04-03T16:01:01;4.07;;;2.20;;
5054;SDS011;13829;48.990;8.346;2023-04-03T16:03:28;3.23;;;2.10;;
5054;SDS011;13829;48.990;8.346;2023-04-03T16:05:56;2.90;;;1.97;;
5054;SDS011;13829;48.990;8.346;2023-04-03T16:08:23;2.73;;;1.50;;
5054;SDS011;13829;48.990;8.346;2023-04-03T16:10:51;2.80;;;2.23;;
5054;SDS011;13829;48.990;8.346;2023-04-03T16:13:17;4.17;;;2.10;;
5054;SDS011;13829;48.990;8.346;2023-04-03T16:15:44;3.03;;;1.87;;
5054;SDS011;13829;48.990;8.346;2023-04-03T16:18:15;2.43;;;1.60;;
5054;SDS011;13829;48.990;8.346;2023-04-03T16:20:43;7.00;;;1.97;;
5054;SDS011;13829;48.990;8.346;2023-04-03T16:23:10;5.30;;;2.10;;
5054;SDS011;13829;48.990;8.346;2023-04-03T16:25:38;3.27;;;1.87;;
5054;SDS011;13829;48.990;8.346;2023-04-03T16:28:05;2.63;;;1.50;;
5054;SDS011;13829;48.990;8.346;2023-04-03T16:30:32;4.47;;;2.47;;
5054;SDS011;13829;48.990;8.346;2023-04-03T16:32:59;4.70;;;2.40;;
5054;SDS011;13829;48.990;8.346;2023-04-03T16:35:28;5.93;;;2.60;;